Northwest Alabama Regional Airport Muscle Shoals US
ICAO: KMSL
IATA: MSL
Category: Medium
Scheduled Services: Yes

Elevation: 551 ft
TransAlt. 18000 ft.

Airport Communications:
ASOS:119.425
MEMPHIS CNTR:120.8
ANNISTON RDO:122.2
CTAF/UNICOM:123.05

KMSL Zoom In..

If Map Doesn't Load, Click Here

Runways:

(A) RW 11 length 6694 ft width 150 ft
---- / hdg 114

(B) RW 18 length 4000 ft width 100 ft
---- / hdg 181

(C) RW 29 length 6694 ft width 150 ft
ILS 109.70 / hdg 294

(D) RW 36 length 4000 ft width 100 ft
---- / hdg 1

Location; KMSL
Day. 26 / Time. 10.00 Zulu
* Altimeter: 30.04
* Temperature: 23° c. 73.4°f.
* Wind from: 150° Speed 04 kn.
Dewpoint: 23° c.
Visibility: 8 Statute Miles.
Clouds: Broken 900 ft.
Clouds: Overcast 1300 ft.
Conditions: Rain.

KMSL 261000Z AUTO 15004KT 8SM RA BKN009 OVC013 23/23 A3004 RMK AO2 LTG DSNT SE CIG 007V012 P0002 T02330228


Wind From 150°
Speed 04 kn.

 
 
jpsmedia.com for Web Design worldairports.se 2018   terms of use